sensor_id;sensor_type;location;lat;lon;timestamp;pressure;altitude;pressure_sealevel;temperature;humidity
67803;BME280;54601;51.378;-1.342;2023-02-18T00:00:06;100973.08;;;19.84;36.35
67803;BME280;54601;51.378;-1.342;2023-02-18T00:02:28;100971.04;;;19.84;36.02
67803;BME280;54601;51.378;-1.342;2023-02-18T00:04:54;100970.99;;;19.95;36.06
67803;BME280;54601;51.378;-1.342;2023-02-18T00:07:19;100976.77;;;19.85;36.36
67803;BME280;54601;51.378;-1.342;2023-02-18T00:09:44;100974.27;;;19.83;36.15
67803;BME280;54601;51.378;-1.342;2023-02-18T00:12:09;100985.48;;;19.81;36.36
67803;BME280;54601;51.378;-1.342;2023-02-18T00:14:34;100978.76;;;19.41;36.52
67803;BME280;54601;51.378;-1.342;2023-02-18T00:16:59;100979.32;;;19.90;36.54
67803;BME280;54601;51.378;-1.342;2023-02-18T00:19:24;100970.69;;;19.95;36.34
67803;BME280;54601;51.378;-1.342;2023-02-18T00:21:49;100977.91;;;19.95;36.27
67803;BME280;54601;51.378;-1.342;2023-02-18T00:24:15;100981.11;;;19.94;36.26
67803;BME280;54601;51.378;-1.342;2023-02-18T00:26:40;100975.77;;;19.69;36.28
67803;BME280;54601;51.378;-1.342;2023-02-18T00:29:04;100973.23;;;19.76;36.29
67803;BME280;54601;51.378;-1.342;2023-02-18T00:31:32;100963.13;;;19.52;37.24
67803;BME280;54601;51.378;-1.342;2023-02-18T00:33:56;100962.13;;;19.78;36.59
67803;BME280;54601;51.378;-1.342;2023-02-18T00:36:21;100969.57;;;19.65;36.26
67803;BME280;54601;51.378;-1.342;2023-02-18T00:38:46;100960.96;;;19.90;36.45
67803;BME280;54601;51.378;-1.342;2023-02-18T00:41:10;100963.92;;;19.43;36.63
67803;BME280;54601;51.378;-1.342;2023-02-18T00:43:35;100968.72;;;19.77;36.39
67803;BME280;54601;51.378;-1.342;2023-02-18T00:46:00;100965.83;;;19.86;36.60
67803;BME280;54601;51.378;-1.342;2023-02-18T00:48:25;100962.95;;;19.60;36.27
67803;BME280;54601;51.378;-1.342;2023-02-18T00:50:50;100955.70;;;19.84;36.31
67803;BME280;54601;51.378;-1.342;2023-02-18T00:53:15;100944.60;;;19.90;36.57
67803;BME280;54601;51.378;-1.342;2023-02-18T00:55:42;100950.02;;;19.86;36.43
67803;BME280;54601;51.378;-1.342;2023-02-18T00:58:06;100943.98;;;19.90;36.27
67803;BME280;54601;51.378;-1.342;2023-02-18T01:00:31;100946.72;;;19.87;36.32
67803;BME280;54601;51.378;-1.342;2023-02-18T01:02:56;100949.63;;;19.92;36.23
67803;BME280;54601;51.378;-1.342;2023-02-18T01:05:21;100954.38;;;19.53;36.23
67803;BME280;54601;51.378;-1.342;2023-02-18T01:07:46;100951.41;;;19.84;36.57
67803;BME280;54601;51.378;-1.342;2023-02-18T01:10:11;100946.46;;;19.88;36.29
67803;BME280;54601;51.378;-1.342;2023-02-18T01:12:36;100950.92;;;19.86;36.35
67803;BME280;54601;51.378;-1.342;2023-02-18T01:15:02;100951.19;;;19.64;36.33
67803;BME280;54601;51.378;-1.342;2023-02-18T01:17:27;100968.27;;;19.90;36.27
67803;BME280;54601;51.378;-1.342;2023-02-18T01:19:51;100965.07;;;19.89;36.07
67803;BME280;54601;51.378;-1.342;2023-02-18T01:22:17;100969.36;;;20.05;36.11
67803;BME280;54601;51.378;-1.342;2023-02-18T01:24:42;100967.97;;;19.78;35.94
67803;BME280;54601;51.378;-1.342;2023-02-18T01:27:07;100971.26;;;19.86;35.80
67803;BME280;54601;51.378;-1.342;2023-02-18T01:29:32;100975.18;;;20.00;36.12
67803;BME280;54601;51.378;-1.342;2023-02-18T01:31:57;100970.21;;;19.94;36.19
67803;BME280;54601;51.378;-1.342;2023-02-18T01:34:22;100968.96;;;19.69;36.49
67803;BME280;54601;51.378;-1.342;2023-02-18T01:36:47;100963.30;;;19.71;36.43
67803;BME280;54601;51.378;-1.342;2023-02-18T01:39:12;100952.36;;;19.88;36.21
67803;BME280;54601;51.378;-1.342;2023-02-18T01:41:38;100952.93;;;19.84;36.26
67803;BME280;54601;51.378;-1.342;2023-02-18T01:44:09;100946.52;;;19.86;36.76
67803;BME280;54601;51.378;-1.342;2023-02-18T01:46:28;100945.28;;;19.86;36.37
67803;BME280;54601;51.378;-1.342;2023-02-18T01:48:55;100943.96;;;20.15;36.50
67803;BME280;54601;51.378;-1.342;2023-02-18T01:51:21;100942.32;;;19.83;36.31
67803;BME280;54601;51.378;-1.342;2023-02-18T01:53:48;100938.86;;;19.80;36.28
67803;BME280;54601;51.378;-1.342;2023-02-18T01:56:13;100942.10;;;19.72;36.08
67803;BME280;54601;51.378;-1.342;2023-02-18T01:58:34;100940.59;;;19.78;36.11
67803;BME280;54601;51.378;-1.342;2023-02-18T02:00:58;100934.61;;;19.64;36.34
67803;BME280;54601;51.378;-1.342;2023-02-18T02:03:24;100931.85;;;19.63;36.08
67803;BME280;54601;51.378;-1.342;2023-02-18T02:05:49;100933.96;;;19.73;36.20
67803;BME280;54601;51.378;-1.342;2023-02-18T02:08:14;100940.22;;;19.57;36.23
67803;BME280;54601;51.378;-1.342;2023-02-18T02:10:49;100938.49;;;19.56;36.10
67803;BME280;54601;51.378;-1.342;2023-02-18T02:13:09;100940.23;;;19.27;36.22
67803;BME280;54601;51.378;-1.342;2023-02-18T02:15:36;100933.07;;;19.75;36.17
67803;BME280;54601;51.378;-1.342;2023-02-18T02:18:04;100934.19;;;19.62;36.01
67803;BME280;54601;51.378;-1.342;2023-02-18T02:22:58;100924.08;;;19.66;36.17
67803;BME280;54601;51.378;-1.342;2023-02-18T02:25:18;100917.06;;;19.39;35.92
67803;BME280;54601;51.378;-1.342;2023-02-18T02:27:50;100912.76;;;19.58;35.92
67803;BME280;54601;51.378;-1.342;2023-02-18T02:30:15;100909.83;;;19.54;36.16
67803;BME280;54601;51.378;-1.342;2023-02-18T02:34:54;100899.05;;;19.36;36.19
67803;BME280;54601;51.378;-1.342;2023-02-18T02:37:17;100900.49;;;19.37;36.09
67803;BME280;54601;51.378;-1.342;2023-02-18T02:39:47;100889.81;;;19.43;36.27
67803;BME280;54601;51.378;-1.342;2023-02-18T02:42:17;100900.23;;;19.63;35.96
67803;BME280;54601;51.378;-1.342;2023-02-18T02:44:35;100895.47;;;19.69;35.78
67803;BME280;54601;51.378;-1.342;2023-02-18T02:47:00;100890.37;;;19.78;35.83
67803;BME280;54601;51.378;-1.342;2023-02-18T02:49:31;100889.80;;;19.73;35.92
67803;BME280;54601;51.378;-1.342;2023-02-18T02:51:49;100890.93;;;19.70;35.86
67803;BME280;54601;51.378;-1.342;2023-02-18T02:54:14;100884.82;;;19.70;35.80
67803;BME280;54601;51.378;-1.342;2023-02-18T02:56:35;100875.86;;;19.73;35.85
67803;BME280;54601;51.378;-1.342;2023-02-18T02:59:03;100874.32;;;19.63;35.89
67803;BME280;54601;51.378;-1.342;2023-02-18T03:01:35;100866.53;;;19.56;35.75
67803;BME280;54601;51.378;-1.342;2023-02-18T03:04:03;100861.54;;;19.60;35.88
67803;BME280;54601;51.378;-1.342;2023-02-18T03:06:27;100865.21;;;19.58;35.83
67803;BME280;54601;51.378;-1.342;2023-02-18T03:08:48;100848.42;;;19.52;35.84
67803;BME280;54601;51.378;-1.342;2023-02-18T03:11:09;100846.96;;;19.48;35.76
67803;BME280;54601;51.378;-1.342;2023-02-18T03:13:43;100842.39;;;19.33;35.68
67803;BME280;54601;51.378;-1.342;2023-02-18T03:16:01;100843.47;;;19.51;35.80
67803;BME280;54601;51.378;-1.342;2023-02-18T03:18:27;100830.65;;;19.68;35.46
67803;BME280;54601;51.378;-1.342;2023-02-18T03:20:51;100841.55;;;19.42;36.20
67803;BME280;54601;51.378;-1.342;2023-02-18T03:23:16;100825.28;;;19.54;35.68
67803;BME280;54601;51.378;-1.342;2023-02-18T03:25:37;100823.82;;;19.53;35.81
67803;BME280;54601;51.378;-1.342;2023-02-18T03:28:05;100817.87;;;19.53;35.93
67803;BME280;54601;51.378;-1.342;2023-02-18T03:30:30;100812.74;;;19.62;35.52
67803;BME280;54601;51.378;-1.342;2023-02-18T03:32:55;100814.71;;;19.51;35.68
67803;BME280;54601;51.378;-1.342;2023-02-18T03:35:18;100824.23;;;19.60;35.63
67803;BME280;54601;51.378;-1.342;2023-02-18T03:37:47;100818.31;;;19.55;35.68
67803;BME280;54601;51.378;-1.342;2023-02-18T03:40:09;100811.33;;;19.38;36.01
67803;BME280;54601;51.378;-1.342;2023-02-18T03:42:32;100811.90;;;19.52;35.87
67803;BME280;54601;51.378;-1.342;2023-02-18T03:44:57;100804.15;;;19.57;35.79
67803;BME280;54601;51.378;-1.342;2023-02-18T03:47:23;100805.20;;;19.39;36.16
67803;BME280;54601;51.378;-1.342;2023-02-18T03:49:48;100799.76;;;19.35;35.97
67803;BME280;54601;51.378;-1.342;2023-02-18T03:52:13;100798.51;;;19.42;35.95
67803;BME280;54601;51.378;-1.342;2023-02-18T03:54:38;100808.92;;;19.52;35.74
67803;BME280;54601;51.378;-1.342;2023-02-18T03:57:03;100809.73;;;19.46;35.87
67803;BME280;54601;51.378;-1.342;2023-02-18T03:59:28;100814.13;;;19.23;35.79
67803;BME280;54601;51.378;-1.342;2023-02-18T04:01:53;100812.94;;;19.43;35.57
67803;BME280;54601;51.378;-1.342;2023-02-18T04:04:18;100813.73;;;19.45;35.54
67803;BME280;54601;51.378;-1.342;2023-02-18T04:06:43;100811.23;;;19.37;35.63
67803;BME280;54601;51.378;-1.342;2023-02-18T04:09:09;100811.59;;;19.35;35.68
67803;BME280;54601;51.378;-1.342;2023-02-18T04:11:35;100809.01;;;19.34;35.85
67803;BME280;54601;51.378;-1.342;2023-02-18T04:13:59;100807.01;;;19.40;35.70
67803;BME280;54601;51.378;-1.342;2023-02-18T04:16:24;100808.67;;;19.27;35.71
67803;BME280;54601;51.378;-1.342;2023-02-18T04:18:49;100806.51;;;19.37;35.60
67803;BME280;54601;51.378;-1.342;2023-02-18T04:21:14;100808.68;;;19.34;35.90
67803;BME280;54601;51.378;-1.342;2023-02-18T04:23:39;100808.90;;;19.35;35.57
67803;BME280;54601;51.378;-1.342;2023-02-18T04:26:04;100805.69;;;19.27;35.92
67803;BME280;54601;51.378;-1.342;2023-02-18T04:28:30;100805.38;;;19.29;35.91
67803;BME280;54601;51.378;-1.342;2023-02-18T04:30:55;100807.66;;;19.32;35.82
67803;BME280;54601;51.378;-1.342;2023-02-18T04:33:20;100805.78;;;19.28;35.81
67803;BME280;54601;51.378;-1.342;2023-02-18T04:35:45;100802.97;;;19.17;35.98
67803;BME280;54601;51.378;-1.342;2023-02-18T04:38:10;100808.19;;;19.26;35.95
67803;BME280;54601;51.378;-1.342;2023-02-18T04:40:35;100807.57;;;19.28;36.01
67803;BME280;54601;51.378;-1.342;2023-02-18T04:43:01;100806.90;;;19.39;35.76
67803;BME280;54601;51.378;-1.342;2023-02-18T04:45:26;100807.49;;;19.37;35.83
67803;BME280;54601;51.378;-1.342;2023-02-18T04:47:51;100805.70;;;19.36;35.96
67803;BME280;54601;51.378;-1.342;2023-02-18T04:50:16;100802.65;;;19.25;36.05
67803;BME280;54601;51.378;-1.342;2023-02-18T04:52:41;100797.80;;;19.34;35.85
67803;BME280;54601;51.378;-1.342;2023-02-18T04:55:06;100795.89;;;19.25;35.86
67803;BME280;54601;51.378;-1.342;2023-02-18T04:57:31;100794.52;;;19.41;35.68
67803;BME280;54601;51.378;-1.342;2023-02-18T04:59:56;100791.30;;;19.28;35.88
67803;BME280;54601;51.378;-1.342;2023-02-18T05:02:21;100800.88;;;19.24;35.95
67803;BME280;54601;51.378;-1.342;2023-02-18T05:04:46;100788.01;;;19.25;35.88
67803;BME280;54601;51.378;-1.342;2023-02-18T05:07:12;100780.67;;;19.09;35.74
67803;BME280;54601;51.378;-1.342;2023-02-18T05:09:37;100792.94;;;19.25;35.88
67803;BME280;54601;51.378;-1.342;2023-02-18T05:12:02;100798.94;;;19.13;35.74
67803;BME280;54601;51.378;-1.342;2023-02-18T05:14:27;100793.87;;;19.30;35.76
67803;BME280;54601;51.378;-1.342;2023-02-18T05:16:52;100792.52;;;19.41;35.58
67803;BME280;54601;51.378;-1.342;2023-02-18T05:19:17;100796.07;;;19.39;35.86
67803;BME280;54601;51.378;-1.342;2023-02-18T05:21:43;100803.59;;;19.31;35.83
67803;BME280;54601;51.378;-1.342;2023-02-18T05:24:08;100799.00;;;19.24;35.78
67803;BME280;54601;51.378;-1.342;2023-02-18T05:26:33;100807.80;;;19.14;35.94
67803;BME280;54601;51.378;-1.342;2023-02-18T05:28:58;100806.18;;;19.03;36.18
67803;BME280;54601;51.378;-1.342;2023-02-18T05:31:23;100800.62;;;19.21;35.87
67803;BME280;54601;51.378;-1.342;2023-02-18T05:33:48;100800.97;;;19.37;35.72
67803;BME280;54601;51.378;-1.342;2023-02-18T05:36:13;100799.68;;;19.14;35.96
67803;BME280;54601;51.378;-1.342;2023-02-18T05:38:38;100795.64;;;19.15;35.95
67803;BME280;54601;51.378;-1.342;2023-02-18T05:41:04;100797.02;;;19.37;36.12
67803;BME280;54601;51.378;-1.342;2023-02-18T05:43:29;100803.20;;;18.94;36.14
67803;BME280;54601;51.378;-1.342;2023-02-18T05:45:54;100803.94;;;19.30;35.54
67803;BME280;54601;51.378;-1.342;2023-02-18T05:48:19;100797.29;;;19.01;36.10
67803;BME280;54601;51.378;-1.342;2023-02-18T05:50:44;100797.63;;;19.17;35.70
67803;BME280;54601;51.378;-1.342;2023-02-18T05:53:10;100789.42;;;19.20;35.99
67803;BME280;54601;51.378;-1.342;2023-02-18T05:55:34;100783.00;;;19.26;35.78
67803;BME280;54601;51.378;-1.342;2023-02-18T05:57:59;100786.57;;;19.17;36.18
67803;BME280;54601;51.378;-1.342;2023-02-18T06:00:24;100787.59;;;19.25;36.02
67803;BME280;54601;51.378;-1.342;2023-02-18T06:02:50;100787.93;;;19.08;35.98
67803;BME280;54601;51.378;-1.342;2023-02-18T06:05:15;100786.97;;;18.99;36.15
67803;BME280;54601;51.378;-1.342;2023-02-18T06:07:40;100783.17;;;19.10;36.02
67803;BME280;54601;51.378;-1.342;2023-02-18T06:10:06;100775.03;;;19.13;36.08
67803;BME280;54601;51.378;-1.342;2023-02-18T06:12:30;100778.28;;;19.05;36.08
67803;BME280;54601;51.378;-1.342;2023-02-18T06:14:56;100776.30;;;18.99;36.37
67803;BME280;54601;51.378;-1.342;2023-02-18T06:17:20;100781.74;;;18.97;36.11
67803;BME280;54601;51.378;-1.342;2023-02-18T06:19:46;100778.66;;;19.03;36.34
67803;BME280;54601;51.378;-1.342;2023-02-18T06:22:11;100786.65;;;18.94;36.08
67803;BME280;54601;51.378;-1.342;2023-02-18T06:24:36;100785.67;;;19.19;35.89
67803;BME280;54601;51.378;-1.342;2023-02-18T06:27:01;100784.85;;;19.14;35.68
67803;BME280;54601;51.378;-1.342;2023-02-18T06:29:26;100784.74;;;19.06;35.90
67803;BME280;54601;51.378;-1.342;2023-02-18T06:31:51;100786.65;;;19.00;35.96
67803;BME280;54601;51.378;-1.342;2023-02-18T06:34:16;100790.26;;;19.01;35.84
67803;BME280;54601;51.378;-1.342;2023-02-18T06:36:41;100798.65;;;18.85;36.02
67803;BME280;54601;51.378;-1.342;2023-02-18T06:39:07;100797.94;;;19.04;35.78
67803;BME280;54601;51.378;-1.342;2023-02-18T06:41:32;100793.95;;;18.91;36.06
67803;BME280;54601;51.378;-1.342;2023-02-18T06:43:57;100790.87;;;18.94;35.88
67803;BME280;54601;51.378;-1.342;2023-02-18T06:46:22;100779.47;;;18.95;35.99
67803;BME280;54601;51.378;-1.342;2023-02-18T06:48:47;100781.84;;;18.86;36.34
67803;BME280;54601;51.378;-1.342;2023-02-18T06:51:13;100781.31;;;18.73;36.22
67803;BME280;54601;51.378;-1.342;2023-02-18T06:53:37;100780.58;;;19.02;35.79
67803;BME280;54601;51.378;-1.342;2023-02-18T06:56:03;100776.60;;;18.97;35.90
67803;BME280;54601;51.378;-1.342;2023-02-18T06:58:28;100775.01;;;18.87;36.06
67803;BME280;54601;51.378;-1.342;2023-02-18T07:00:53;100777.30;;;18.87;36.17
67803;BME280;54601;51.378;-1.342;2023-02-18T07:03:18;100779.02;;;19.22;35.92
67803;BME280;54601;51.378;-1.342;2023-02-18T07:05:43;100777.67;;;18.88;36.26
67803;BME280;54601;51.378;-1.342;2023-02-18T07:08:09;100780.98;;;18.84;35.95
67803;BME280;54601;51.378;-1.342;2023-02-18T07:10:34;100775.18;;;18.93;35.94
67803;BME280;54601;51.378;-1.342;2023-02-18T07:12:59;100781.17;;;18.86;36.06
67803;BME280;54601;51.378;-1.342;2023-02-18T07:15:24;100777.34;;;19.26;36.14
67803;BME280;54601;51.378;-1.342;2023-02-18T07:17:49;100790.10;;;19.35;36.08
67803;BME280;54601;51.378;-1.342;2023-02-18T07:20:14;100787.96;;;18.83;36.15
67803;BME280;54601;51.378;-1.342;2023-02-18T07:22:40;100782.59;;;18.75;36.17
67803;BME280;54601;51.378;-1.342;2023-02-18T07:25:06;100784.87;;;18.91;36.63
67803;BME280;54601;51.378;-1.342;2023-02-18T07:27:30;100785.83;;;18.93;36.09
67803;BME280;54601;51.378;-1.342;2023-02-18T07:29:56;100783.46;;;19.07;36.08
67803;BME280;54601;51.378;-1.342;2023-02-18T07:32:20;100781.83;;;18.89;35.95
67803;BME280;54601;51.378;-1.342;2023-02-18T07:34:46;100781.66;;;19.08;36.18
67803;BME280;54601;51.378;-1.342;2023-02-18T07:37:11;100786.33;;;19.18;36.00
67803;BME280;54601;51.378;-1.342;2023-02-18T07:39:39;100785.29;;;18.86;36.02
67803;BME280;54601;51.378;-1.342;2023-02-18T07:42:01;100793.88;;;19.23;35.92
67803;BME280;54601;51.378;-1.342;2023-02-18T07:44:26;100798.06;;;18.80;36.16
67803;BME280;54601;51.378;-1.342;2023-02-18T07:46:51;100802.36;;;18.73;36.30
67803;BME280;54601;51.378;-1.342;2023-02-18T07:49:17;100808.17;;;18.87;36.09
67803;BME280;54601;51.378;-1.342;2023-02-18T07:51:42;100808.32;;;18.79;36.13
67803;BME280;54601;51.378;-1.342;2023-02-18T07:54:07;100804.17;;;18.75;36.20
67803;BME280;54601;51.378;-1.342;2023-02-18T07:56:32;100801.25;;;19.02;36.01
67803;BME280;54601;51.378;-1.342;2023-02-18T07:58:57;100804.99;;;18.92;36.00
67803;BME280;54601;51.378;-1.342;2023-02-18T08:01:23;100806.50;;;19.16;36.17
67803;BME280;54601;51.378;-1.342;2023-02-18T08:03:48;100809.82;;;19.06;36.26
67803;BME280;54601;51.378;-1.342;2023-02-18T08:06:20;100809.69;;;19.02;36.30
67803;BME280;54601;51.378;-1.342;2023-02-18T08:08:38;100812.01;;;19.58;36.26
67803;BME280;54601;51.378;-1.342;2023-02-18T08:11:03;100815.87;;;19.07;36.48
67803;BME280;54601;51.378;-1.342;2023-02-18T08:13:29;100817.55;;;19.04;36.35
67803;BME280;54601;51.378;-1.342;2023-02-18T08:15:54;100821.73;;;19.07;36.45
67803;BME280;54601;51.378;-1.342;2023-02-18T08:18:21;100820.74;;;19.07;36.49
67803;BME280;54601;51.378;-1.342;2023-02-18T08:20:45;100819.33;;;19.37;36.44
67803;BME280;54601;51.378;-1.342;2023-02-18T08:23:10;100816.02;;;19.11;36.41
67803;BME280;54601;51.378;-1.342;2023-02-18T08:25:34;100812.76;;;19.37;36.54
67803;BME280;54601;51.378;-1.342;2023-02-18T08:28:00;100810.05;;;19.14;36.48
67803;BME280;54601;51.378;-1.342;2023-02-18T08:30:25;100819.49;;;19.09;36.64
67803;BME280;54601;51.378;-1.342;2023-02-18T08:32:50;100809.15;;;19.24;36.41
67803;BME280;54601;51.378;-1.342;2023-02-18T08:35:15;100816.95;;;19.14;36.65
67803;BME280;54601;51.378;-1.342;2023-02-18T08:37:40;100825.47;;;19.66;36.54
67803;BME280;54601;51.378;-1.342;2023-02-18T08:40:07;100824.86;;;19.21;36.51
67803;BME280;54601;51.378;-1.342;2023-02-18T08:42:31;100830.67;;;19.74;36.42
67803;BME280;54601;51.378;-1.342;2023-02-18T08:44:56;100832.44;;;19.26;36.41
67803;BME280;54601;51.378;-1.342;2023-02-18T08:47:21;100828.66;;;19.19;36.50
67803;BME280;54601;51.378;-1.342;2023-02-18T08:49:46;100822.17;;;19.18;36.64
67803;BME280;54601;51.378;-1.342;2023-02-18T08:52:12;100827.27;;;19.48;36.63
67803;BME280;54601;51.378;-1.342;2023-02-18T08:54:37;100831.49;;;19.48;36.74
67803;BME280;54601;51.378;-1.342;2023-02-18T08:57:02;100825.40;;;19.24;36.64
67803;BME280;54601;51.378;-1.342;2023-02-18T08:59:27;100829.42;;;19.24;36.59
67803;BME280;54601;51.378;-1.342;2023-02-18T09:01:52;100815.77;;;19.58;36.52
67803;BME280;54601;51.378;-1.342;2023-02-18T09:04:18;100806.49;;;19.26;36.70
67803;BME280;54601;51.378;-1.342;2023-02-18T09:06:43;100807.86;;;19.29;36.48
67803;BME280;54601;51.378;-1.342;2023-02-18T09:09:08;100803.76;;;19.27;36.60
67803;BME280;54601;51.378;-1.342;2023-02-18T09:11:33;100800.20;;;19.28;36.71
67803;BME280;54601;51.378;-1.342;2023-02-18T09:13:58;100794.91;;;19.30;36.67
67803;BME280;54601;51.378;-1.342;2023-02-18T09:16:23;100789.90;;;19.38;36.67
67803;BME280;54601;51.378;-1.342;2023-02-18T09:18:50;100787.35;;;19.36;36.71
67803;BME280;54601;51.378;-1.342;2023-02-18T09:21:15;100781.54;;;19.45;36.47
67803;BME280;54601;51.378;-1.342;2023-02-18T09:23:39;100771.94;;;19.63;37.29
67803;BME280;54601;51.378;-1.342;2023-02-18T09:26:05;100771.85;;;19.42;37.16
67803;BME280;54601;51.378;-1.342;2023-02-18T09:28:29;100783.40;;;19.54;37.07
67803;BME280;54601;51.378;-1.342;2023-02-18T09:30:54;100783.09;;;19.96;36.96
67803;BME280;54601;51.378;-1.342;2023-02-18T09:33:20;100787.48;;;20.17;36.73
67803;BME280;54601;51.378;-1.342;2023-02-18T09:35:45;100792.44;;;20.12;36.77
67803;BME280;54601;51.378;-1.342;2023-02-18T09:38:12;100791.44;;;19.94;36.96
67803;BME280;54601;51.378;-1.342;2023-02-18T09:40:37;100795.48;;;19.94;36.83
67803;BME280;54601;51.378;-1.342;2023-02-18T09:43:00;100797.78;;;19.86;36.96
67803;BME280;54601;51.378;-1.342;2023-02-18T09:45:25;100806.92;;;19.76;36.80
67803;BME280;54601;51.378;-1.342;2023-02-18T09:47:51;100812.52;;;19.98;36.74
67803;BME280;54601;51.378;-1.342;2023-02-18T09:50:19;100818.24;;;20.01;36.73
67803;BME280;54601;51.378;-1.342;2023-02-18T09:52:41;100825.61;;;20.08;36.64
67803;BME280;54601;51.378;-1.342;2023-02-18T09:55:16;100828.52;;;20.02;36.89
67803;BME280;54601;51.378;-1.342;2023-02-18T09:57:37;100833.77;;;19.92;36.80
67803;BME280;54601;51.378;-1.342;2023-02-18T09:59:59;100833.67;;;20.21;36.49
67803;BME280;54601;51.378;-1.342;2023-02-18T10:02:22;100825.51;;;20.28;37.11
67803;BME280;54601;51.378;-1.342;2023-02-18T10:04:47;100818.94;;;20.29;36.81
67803;BME280;54601;51.378;-1.342;2023-02-18T10:07:18;100817.13;;;20.16;36.88
67803;BME280;54601;51.378;-1.342;2023-02-18T10:09:37;100821.23;;;20.29;36.71
67803;BME280;54601;51.378;-1.342;2023-02-18T10:12:13;100823.72;;;20.29;36.50
67803;BME280;54601;51.378;-1.342;2023-02-18T10:14:27;100812.58;;;20.03;36.49
67803;BME280;54601;51.378;-1.342;2023-02-18T10:16:53;100808.83;;;20.01;36.62
67803;BME280;54601;51.378;-1.342;2023-02-18T10:19:22;100804.26;;;19.55;36.44
67803;BME280;54601;51.378;-1.342;2023-02-18T10:21:43;100796.45;;;19.83;36.71
67803;BME280;54601;51.378;-1.342;2023-02-18T10:24:15;100791.58;;;20.00;36.48
67803;BME280;54601;51.378;-1.342;2023-02-18T10:26:35;100789.64;;;20.11;36.22
67803;BME280;54601;51.378;-1.342;2023-02-18T10:28:58;100791.15;;;19.95;36.34
67803;BME280;54601;51.378;-1.342;2023-02-18T10:31:29;100774.85;;;19.65;36.32
67803;BME280;54601;51.378;-1.342;2023-02-18T10:33:52;100785.99;;;19.99;36.16
67803;BME280;54601;51.378;-1.342;2023-02-18T10:36:22;100785.75;;;19.66;36.50
67803;BME280;54601;51.378;-1.342;2023-02-18T10:38:50;100782.68;;;19.79;36.30
67803;BME280;54601;51.378;-1.342;2023-02-18T10:41:08;100787.39;;;19.78;36.21
67803;BME280;54601;51.378;-1.342;2023-02-18T10:43:35;100790.04;;;19.92;36.02
67803;BME280;54601;51.378;-1.342;2023-02-18T10:46:00;100798.59;;;19.90;35.98
67803;BME280;54601;51.378;-1.342;2023-02-18T10:48:32;100799.76;;;19.85;36.01
67803;BME280;54601;51.378;-1.342;2023-02-18T10:50:45;100812.72;;;19.80;36.03
67803;BME280;54601;51.378;-1.342;2023-02-18T10:53:11;100820.65;;;19.91;35.85
67803;BME280;54601;51.378;-1.342;2023-02-18T10:55:36;100822.55;;;19.89;35.87
67803;BME280;54601;51.378;-1.342;2023-02-18T10:57:59;100824.33;;;19.59;35.93
67803;BME280;54601;51.378;-1.342;2023-02-18T11:00:26;100836.22;;;19.85;35.82
67803;BME280;54601;51.378;-1.342;2023-02-18T11:05:21;100831.30;;;19.79;35.84
67803;BME280;54601;51.378;-1.342;2023-02-18T11:07:41;100828.94;;;19.75;35.88
67803;BME280;54601;51.378;-1.342;2023-02-18T11:10:14;100834.11;;;19.77;35.78
67803;BME280;54601;51.378;-1.342;2023-02-18T11:12:39;100830.40;;;19.85;35.68
67803;BME280;54601;51.378;-1.342;2023-02-18T11:15:05;100832.04;;;20.02;35.73
67803;BME280;54601;51.378;-1.342;2023-02-18T11:17:26;100826.08;;;19.71;35.78
67803;BME280;54601;51.378;-1.342;2023-02-18T11:19:52;100828.38;;;19.80;35.64
67803;BME280;54601;51.378;-1.342;2023-02-18T11:22:16;100826.37;;;19.93;35.44
67803;BME280;54601;51.378;-1.342;2023-02-18T11:24:38;100825.85;;;20.15;35.18
67803;BME280;54601;51.378;-1.342;2023-02-18T11:27:02;100827.73;;;20.03;35.29
67803;BME280;54601;51.378;-1.342;2023-02-18T11:29:28;100830.70;;;19.69;35.41
67803;BME280;54601;51.378;-1.342;2023-02-18T11:31:53;100828.71;;;19.99;35.29
67803;BME280;54601;51.378;-1.342;2023-02-18T11:34:19;100829.18;;;19.99;35.24
67803;BME280;54601;51.378;-1.342;2023-02-18T11:36:42;100835.90;;;20.04;35.16
67803;BME280;54601;51.378;-1.342;2023-02-18T11:39:18;100838.69;;;19.98;35.26
67803;BME280;54601;51.378;-1.342;2023-02-18T11:41:34;100839.96;;;19.93;35.29
67803;BME280;54601;51.378;-1.342;2023-02-18T11:43:57;100838.47;;;19.96;35.23
67803;BME280;54601;51.378;-1.342;2023-02-18T11:46:24;100836.66;;;19.90;35.32
67803;BME280;54601;51.378;-1.342;2023-02-18T11:48:48;100840.12;;;19.84;35.36
67803;BME280;54601;51.378;-1.342;2023-02-18T11:51:15;100842.73;;;19.89;35.30
67803;BME280;54601;51.378;-1.342;2023-02-18T11:53:37;100840.04;;;19.76;35.45
67803;BME280;54601;51.378;-1.342;2023-02-18T11:56:05;100840.61;;;19.74;35.48
67803;BME280;54601;51.378;-1.342;2023-02-18T11:58:34;100838.96;;;19.73;35.45
67803;BME280;54601;51.378;-1.342;2023-02-18T12:00:55;100836.67;;;19.68;35.51
67803;BME280;54601;51.378;-1.342;2023-02-18T12:03:25;100836.51;;;19.96;35.23
67803;BME280;54601;51.378;-1.342;2023-02-18T12:05:44;100839.87;;;19.51;35.79
67803;BME280;54601;51.378;-1.342;2023-02-18T12:08:13;100836.42;;;19.66;35.64
67803;BME280;54601;51.378;-1.342;2023-02-18T12:10:37;100835.50;;;19.75;35.49
67803;BME280;54601;51.378;-1.342;2023-02-18T12:13:02;100831.47;;;19.72;35.52
67803;BME280;54601;51.378;-1.342;2023-02-18T12:15:31;100839.52;;;19.84;35.41
67803;BME280;54601;51.378;-1.342;2023-02-18T12:18:00;100831.94;;;19.93;35.30
67803;BME280;54601;51.378;-1.342;2023-02-18T12:20:25;100827.98;;;19.78;35.45
67803;BME280;54601;51.378;-1.342;2023-02-18T12:22:41;100822.86;;;19.66;35.59
67803;BME280;54601;51.378;-1.342;2023-02-18T12:27:36;100819.87;;;19.57;35.67
67803;BME280;54601;51.378;-1.342;2023-02-18T12:32:29;100817.75;;;19.87;35.69
67803;BME280;54601;51.378;-1.342;2023-02-18T12:34:56;100818.25;;;19.75;35.82
67803;BME280;54601;51.378;-1.342;2023-02-18T12:42:15;100815.38;;;19.73;35.76
67803;BME280;54601;51.378;-1.342;2023-02-18T12:44:33;100822.12;;;19.83;35.68